sensor_id;sensor_type;location;lat;lon;timestamp;pressure;altitude;pressure_sealevel;temperature;humidity
12913;BME280;6524;51.368;11.984;2022-11-13T00:04:19;101720.03;;;3.90;100.00
12913;BME280;6524;51.368;11.984;2022-11-13T00:09:19;101724.25;;;3.87;100.00
12913;BME280;6524;51.368;11.984;2022-11-13T00:14:20;101726.81;;;3.85;100.00
12913;BME280;6524;51.368;11.984;2022-11-13T00:19:20;101721.41;;;3.70;100.00
12913;BME280;6524;51.368;11.984;2022-11-13T00:24:21;101704.13;;;3.64;100.00
12913;BME280;6524;51.368;11.984;2022-11-13T00:29:21;101704.03;;;3.60;100.00
12913;BME280;6524;51.368;11.984;2022-11-13T00:34:22;101701.72;;;3.75;100.00
12913;BME280;6524;51.368;11.984;2022-11-13T00:39:23;101696.44;;;3.67;99.54
12913;BME280;6524;51.368;11.984;2022-11-13T00:44:23;101692.00;;;3.60;99.13
12913;BME280;6524;51.368;11.984;2022-11-13T00:49:23;101692.84;;;3.59;100.00
12913;BME280;6524;51.368;11.984;2022-11-13T00:54:24;101700.69;;;3.64;99.82
12913;BME280;6524;51.368;11.984;2022-11-13T00:59:25;101685.75;;;3.46;100.00
12913;BME280;6524;51.368;11.984;2022-11-13T05:01:17;101573.84;;;3.35;100.00
12913;BME280;6524;51.368;11.984;2022-11-13T05:06:17;101557.50;;;3.34;100.00
12913;BME280;6524;51.368;11.984;2022-11-13T05:11:17;101565.28;;;3.37;100.00
12913;BME280;6524;51.368;11.984;2022-11-13T05:16:18;101559.22;;;3.32;100.00
12913;BME280;6524;51.368;11.984;2022-11-13T05:21:18;101567.78;;;3.31;100.00
12913;BME280;6524;51.368;11.984;2022-11-13T05:26:18;101569.44;;;3.26;100.00
12913;BME280;6524;51.368;11.984;2022-11-13T05:31:19;101553.19;;;3.32;100.00
12913;BME280;6524;51.368;11.984;2022-11-13T05:36:20;101559.22;;;3.32;100.00
12913;BME280;6524;51.368;11.984;2022-11-13T05:41:22;101557.31;;;3.22;100.00
12913;BME280;6524;51.368;11.984;2022-11-13T05:46:24;101554.06;;;3.32;100.00
12913;BME280;6524;51.368;11.984;2022-11-13T05:51:31;101560.75;;;3.22;100.00
12913;BME280;6524;51.368;11.984;2022-11-13T05:56:34;101551.34;;;3.24;100.00
12913;BME280;6524;51.368;11.984;2022-11-13T06:01:39;101558.16;;;3.22;100.00
12913;BME280;6524;51.368;11.984;2022-11-13T06:06:40;101563.28;;;3.18;100.00
12913;BME280;6524;51.368;11.984;2022-11-13T06:11:41;101567.47;;;3.13;100.00
12913;BME280;6524;51.368;11.984;2022-11-13T06:16:42;101555.53;;;3.18;100.00
12913;BME280;6524;51.368;11.984;2022-11-13T06:21:42;101557.09;;;3.10;100.00
12913;BME280;6524;51.368;11.984;2022-11-13T06:26:42;101563.97;;;3.08;100.00
12913;BME280;6524;51.368;11.984;2022-11-13T06:31:43;101562.47;;;3.22;100.00
12913;BME280;6524;51.368;11.984;2022-11-13T06:36:43;101549.59;;;3.22;100.00
12913;BME280;6524;51.368;11.984;2022-11-13T06:41:44;101558.81;;;3.08;100.00
12913;BME280;6524;51.368;11.984;2022-11-13T06:46:47;101563.28;;;3.18;100.00
12913;BME280;6524;51.368;11.984;2022-11-13T06:51:47;101567.50;;;3.16;100.00
12913;BME280;6524;51.368;11.984;2022-11-13T06:56:48;101559.03;;;3.20;100.00
12913;BME280;6524;51.368;11.984;2022-11-13T07:01:53;101538.31;;;3.14;100.00
12913;BME280;6524;51.368;11.984;2022-11-13T07:07:01;101535.16;;;3.33;100.00
12913;BME280;6524;51.368;11.984;2022-11-13T07:12:05;101520.56;;;3.34;100.00
12913;BME280;6524;51.368;11.984;2022-11-13T07:17:05;101522.44;;;3.42;100.00
12913;BME280;6524;51.368;11.984;2022-11-13T07:22:06;101520.75;;;3.46;100.00
12913;BME280;6524;51.368;11.984;2022-11-13T07:27:06;101520.81;;;3.51;100.00
12913;BME280;6524;51.368;11.984;2022-11-13T07:32:06;101524.16;;;3.43;100.00
12913;BME280;6524;51.368;11.984;2022-11-13T07:37:07;101513.13;;;3.54;100.00
12913;BME280;6524;51.368;11.984;2022-11-13T07:42:07;101520.84;;;3.54;100.00
12913;BME280;6524;51.368;11.984;2022-11-13T07:47:07;101512.34;;;3.58;100.00
12913;BME280;6524;51.368;11.984;2022-11-13T07:52:08;101508.91;;;3.59;100.00
12913;BME280;6524;51.368;11.984;2022-11-13T07:57:09;101508.97;;;3.63;100.00
12913;BME280;6524;51.368;11.984;2022-11-13T08:02:41;101516.69;;;3.62;100.00
12913;BME280;6524;51.368;11.984;2022-11-13T08:07:47;101520.94;;;3.60;100.00
12913;BME280;6524;51.368;11.984;2022-11-13T08:13:02;101516.81;;;3.71;100.00
12913;BME280;6524;51.368;11.984;2022-11-13T08:18:46;101532.44;;;3.80;100.00
12913;BME280;6524;51.368;11.984;2022-11-13T08:23:47;101527.31;;;3.83;99.96
12913;BME280;6524;51.368;11.984;2022-11-13T08:28:52;101516.19;;;3.87;100.00
12913;BME280;6524;51.368;11.984;2022-11-13T08:33:53;101524.97;;;4.03;99.87
12913;BME280;6524;51.368;11.984;2022-11-13T08:39:03;101521.66;;;4.13;99.66
12913;BME280;6524;51.368;11.984;2022-11-13T08:44:03;101524.53;;;4.36;99.66
12913;BME280;6524;51.368;11.984;2022-11-13T08:49:15;101526.22;;;4.34;100.00
12913;BME280;6524;51.368;11.984;2022-11-13T08:54:18;101529.69;;;4.36;100.00
12913;BME280;6524;51.368;11.984;2022-11-13T08:59:26;101535.06;;;4.55;100.00
12913;BME280;6524;51.368;11.984;2022-11-13T09:04:54;101524.97;;;4.79;100.00
12913;BME280;6524;51.368;11.984;2022-11-13T09:09:59;101513.81;;;4.85;100.00
12913;BME280;6524;51.368;11.984;2022-11-13T09:15:10;101514.88;;;5.07;100.00
12913;BME280;6524;51.368;11.984;2022-11-13T09:20:15;101511.50;;;5.16;100.00
12913;BME280;6524;51.368;11.984;2022-11-13T09:25:25;101511.41;;;5.02;100.00
12913;BME280;6524;51.368;11.984;2022-11-13T09:30:40;101511.34;;;4.97;100.00
12913;BME280;6524;51.368;11.984;2022-11-13T09:35:42;101501.19;;;5.17;100.00
12913;BME280;6524;51.368;11.984;2022-11-13T09:40:50;101495.91;;;5.02;100.00
12913;BME280;6524;51.368;11.984;2022-11-13T09:46:17;101495.25;;;5.27;100.00
12913;BME280;6524;51.368;11.984;2022-11-13T09:51:32;101495.53;;;5.76;99.97
12913;BME280;6524;51.368;11.984;2022-11-13T09:56:45;101490.38;;;5.78;99.16
12913;BME280;6524;51.368;11.984;2022-11-13T10:07:40;101486.97;;;5.88;99.95
12913;BME280;6524;51.368;11.984;2022-11-13T10:12:35;101491.41;;;6.06;100.00
12913;BME280;6524;51.368;11.984;2022-11-13T10:23:13;101475.81;;;5.97;100.00
12913;BME280;6524;51.368;11.984;2022-11-13T10:28:24;101459.47;;;6.06;100.00
12913;BME280;6524;51.368;11.984;2022-11-13T10:33:26;101456.91;;;6.18;100.00
12913;BME280;6524;51.368;11.984;2022-11-13T10:38:42;101460.44;;;6.43;100.00
12913;BME280;6524;51.368;11.984;2022-11-13T10:44:03;101447.50;;;6.57;100.00
12913;BME280;6524;51.368;11.984;2022-11-13T10:49:26;101446.66;;;6.78;100.00
12913;BME280;6524;51.368;11.984;2022-11-13T10:54:31;101430.19;;;6.42;100.00
12913;BME280;6524;51.368;11.984;2022-11-13T10:59:42;101423.31;;;6.75;100.00
12913;BME280;6524;51.368;11.984;2022-11-13T11:04:44;101420.72;;;6.59;100.00
12913;BME280;6524;51.368;11.984;2022-11-13T11:09:45;101410.38;;;6.87;100.00
12913;BME280;6524;51.368;11.984;2022-11-13T11:20:00;101400.00;;;6.99;98.68
12913;BME280;6524;51.368;11.984;2022-11-13T11:25:08;101392.16;;;7.19;98.09
12913;BME280;6524;51.368;11.984;2022-11-13T11:30:20;101362.84;;;6.82;99.29
12913;BME280;6524;51.368;11.984;2022-11-13T11:35:53;101358.34;;;7.45;97.74
12913;BME280;6524;51.368;11.984;2022-11-13T11:41:14;101344.50;;;7.55;98.00
12913;BME280;6524;51.368;11.984;2022-11-13T11:46:22;101337.44;;;7.76;97.02
12913;BME280;6524;51.368;11.984;2022-11-13T11:51:24;101337.34;;;7.94;96.93
12913;BME280;6524;51.368;11.984;2022-11-13T11:56:39;101328.72;;;7.89;95.70
12913;BME280;6524;51.368;11.984;2022-11-13T12:07:21;101335.56;;;8.02;95.69
12913;BME280;6524;51.368;11.984;2022-11-13T12:12:33;101325.16;;;8.05;95.10
12913;BME280;6524;51.368;11.984;2022-11-13T12:17:47;101305.06;;;8.30;94.11
12913;BME280;6524;51.368;11.984;2022-11-13T12:28:13;101307.63;;;8.32;96.21
12913;BME280;6524;51.368;11.984;2022-11-13T12:38:38;101312.84;;;8.29;94.33
12913;BME280;6524;51.368;11.984;2022-11-13T12:43:50;101312.78;;;8.41;93.47
12913;BME280;6524;51.368;11.984;2022-11-13T12:48:53;101301.53;;;8.39;93.61
12913;BME280;6524;51.368;11.984;2022-11-13T12:53:54;101300.72;;;8.31;94.58
12913;BME280;6524;51.368;11.984;2022-11-13T12:58:58;101305.88;;;8.40;94.53
12913;BME280;6524;51.368;11.984;2022-11-13T13:04:32;101299.75;;;8.43;94.26
12913;BME280;6524;51.368;11.984;2022-11-13T13:09:46;101303.31;;;8.29;92.82
12913;BME280;6524;51.368;11.984;2022-11-13T13:20:34;101285.09;;;8.37;91.69
12913;BME280;6524;51.368;11.984;2022-11-13T13:25:35;101283.41;;;8.27;91.54
12913;BME280;6524;51.368;11.984;2022-11-13T13:30:56;101268.78;;;8.18;92.14
12913;BME280;6524;51.368;11.984;2022-11-13T13:36:10;101262.66;;;8.24;91.17
12913;BME280;6524;51.368;11.984;2022-11-13T13:41:44;101252.13;;;8.44;91.58
12913;BME280;6524;51.368;11.984;2022-11-13T13:46:48;101252.06;;;8.48;91.89
12913;BME280;6524;51.368;11.984;2022-11-13T13:51:54;101244.38;;;8.38;91.64
12913;BME280;6524;51.368;11.984;2022-11-13T13:56:56;101254.78;;;8.33;91.46
12913;BME280;6524;51.368;11.984;2022-11-13T14:02:01;101245.25;;;8.38;91.39
12913;BME280;6524;51.368;11.984;2022-11-13T14:07:04;101237.47;;;8.35;92.43
12913;BME280;6524;51.368;11.984;2022-11-13T14:12:15;101220.13;;;8.35;92.27
12913;BME280;6524;51.368;11.984;2022-11-13T14:17:22;101217.59;;;8.31;91.89
12913;BME280;6524;51.368;11.984;2022-11-13T14:22:28;101201.94;;;8.40;91.39
12913;BME280;6524;51.368;11.984;2022-11-13T14:27:29;101194.94;;;8.45;91.33
12913;BME280;6524;51.368;11.984;2022-11-13T14:32:33;101177.66;;;8.41;92.04
12913;BME280;6524;51.368;11.984;2022-11-13T14:37:38;101171.81;;;8.18;92.68
12913;BME280;6524;51.368;11.984;2022-11-13T14:42:46;101163.97;;;8.21;93.30
12913;BME280;6524;51.368;11.984;2022-11-13T14:48:22;101164.19;;;8.02;94.08
12913;BME280;6524;51.368;11.984;2022-11-13T14:53:29;101150.19;;;8.16;93.61
12913;BME280;6524;51.368;11.984;2022-11-13T15:03:30;101161.63;;;7.99;93.16
12913;BME280;6524;51.368;11.984;2022-11-13T15:08:33;101159.22;;;7.78;93.67
12913;BME280;6524;51.368;11.984;2022-11-13T15:13:33;101151.59;;;7.56;94.90
12913;BME280;6524;51.368;11.984;2022-11-13T15:18:34;101150.00;;;7.40;95.14
12913;BME280;6524;51.368;11.984;2022-11-13T15:23:34;101145.66;;;7.36;95.34
12913;BME280;6524;51.368;11.984;2022-11-13T15:28:34;101137.13;;;7.25;96.15
12913;BME280;6524;51.368;11.984;2022-11-13T15:33:35;101144.09;;;7.13;96.17
12913;BME280;6524;51.368;11.984;2022-11-13T15:38:38;101146.75;;;7.03;96.19
12913;BME280;6524;51.368;11.984;2022-11-13T15:43:42;101138.19;;;6.90;96.79
12913;BME280;6524;51.368;11.984;2022-11-13T15:48:44;101128.69;;;6.83;97.33
12913;BME280;6524;51.368;11.984;2022-11-13T15:53:47;101125.28;;;6.76;96.64
12913;BME280;6524;51.368;11.984;2022-11-13T15:58:48;101115.91;;;6.52;97.98
12913;BME280;6524;51.368;11.984;2022-11-13T16:03:49;101121.09;;;6.55;97.30
12913;BME280;6524;51.368;11.984;2022-11-13T16:08:50;101110.72;;;6.54;97.33
12913;BME280;6524;51.368;11.984;2022-11-13T16:13:50;101121.94;;;6.48;97.14
12913;BME280;6524;51.368;11.984;2022-11-13T16:18:51;101118.53;;;6.43;97.33
12913;BME280;6524;51.368;11.984;2022-11-13T16:23:51;101109.13;;;6.13;98.10
12913;BME280;6524;51.368;11.984;2022-11-13T16:28:53;101109.97;;;6.22;98.31
12913;BME280;6524;51.368;11.984;2022-11-13T16:33:53;101105.66;;;6.17;98.50
12913;BME280;6524;51.368;11.984;2022-11-13T16:38:54;101104.81;;;6.13;97.53
12913;BME280;6524;51.368;11.984;2022-11-13T16:43:55;101100.50;;;6.11;97.40
12913;BME280;6524;51.368;11.984;2022-11-13T16:48:55;101092.75;;;6.09;97.37
12913;BME280;6524;51.368;11.984;2022-11-13T16:53:56;101084.13;;;5.98;97.87
12913;BME280;6524;51.368;11.984;2022-11-13T16:58:57;101085.00;;;5.89;96.95
12913;BME280;6524;51.368;11.984;2022-11-13T17:03:57;101072.06;;;5.75;98.09
12913;BME280;6524;51.368;11.984;2022-11-13T17:08:59;101070.38;;;5.65;97.91
12913;BME280;6524;51.368;11.984;2022-11-13T17:14:01;101065.19;;;5.53;97.86
12913;BME280;6524;51.368;11.984;2022-11-13T17:19:02;101063.50;;;5.43;99.64
12913;BME280;6524;51.368;11.984;2022-11-13T17:24:02;101057.47;;;5.42;99.42
12913;BME280;6524;51.368;11.984;2022-11-13T17:29:02;101057.44;;;5.41;100.00
12913;BME280;6524;51.368;11.984;2022-11-13T17:34:04;101054.00;;;5.62;100.00
12913;BME280;6524;51.368;11.984;2022-11-13T17:39:05;101051.38;;;5.78;100.00
12913;BME280;6524;51.368;11.984;2022-11-13T17:44:05;101044.47;;;5.74;100.00
12913;BME280;6524;51.368;11.984;2022-11-13T17:49:06;101044.50;;;5.65;100.00
12913;BME280;6524;51.368;11.984;2022-11-13T17:54:06;101042.78;;;5.61;100.00
12913;BME280;6524;51.368;11.984;2022-11-13T17:59:07;101045.38;;;5.64;100.00
12913;BME280;6524;51.368;11.984;2022-11-13T18:04:08;101040.19;;;5.63;99.73
12913;BME280;6524;51.368;11.984;2022-11-13T18:09:08;101032.47;;;5.43;99.68
12913;BME280;6524;51.368;11.984;2022-11-13T18:14:08;101027.28;;;5.40;100.00
12913;BME280;6524;51.368;11.984;2022-11-13T18:19:09;101023.84;;;5.19;99.48
12913;BME280;6524;51.368;11.984;2022-11-13T18:24:15;101016.97;;;5.15;99.54
12913;BME280;6524;51.368;11.984;2022-11-13T18:29:16;101018.69;;;5.13;100.00
12913;BME280;6524;51.368;11.984;2022-11-13T18:34:16;101016.97;;;5.12;100.00
12913;BME280;6524;51.368;11.984;2022-11-13T18:39:17;101014.38;;;5.12;99.14
12913;BME280;6524;51.368;11.984;2022-11-13T18:44:17;101021.25;;;4.96;98.82
12913;BME280;6524;51.368;11.984;2022-11-13T18:49:17;101014.38;;;4.92;99.31
12913;BME280;6524;51.368;11.984;2022-11-13T18:54:18;101020.38;;;4.88;99.96
12913;BME280;6524;51.368;11.984;2022-11-13T18:59:18;101024.69;;;4.84;98.38
12913;BME280;6524;51.368;11.984;2022-11-13T19:04:19;101020.38;;;4.77;97.35
12913;BME280;6524;51.368;11.984;2022-11-13T19:09:19;101012.59;;;4.56;98.80
12913;BME280;6524;51.368;11.984;2022-11-13T19:14:19;101010.00;;;4.57;99.24
12913;BME280;6524;51.368;11.984;2022-11-13T19:19:21;101005.69;;;4.56;97.42
12913;BME280;6524;51.368;11.984;2022-11-13T19:24:22;101011.69;;;4.40;98.25
12913;BME280;6524;51.368;11.984;2022-11-13T19:29:22;100997.91;;;4.30;99.03
12913;BME280;6524;51.368;11.984;2022-11-13T19:34:23;100991.00;;;4.20;100.00
12913;BME280;6524;51.368;11.984;2022-11-13T19:39:23;100999.56;;;4.19;98.58
12913;BME280;6524;51.368;11.984;2022-11-13T19:44:24;101004.72;;;4.19;97.72
12913;BME280;6524;51.368;11.984;2022-11-13T19:49:24;101002.91;;;3.97;97.20
12913;BME280;6524;51.368;11.984;2022-11-13T19:54:25;100992.63;;;4.00;96.61
12913;BME280;6524;51.368;11.984;2022-11-13T19:59:25;101000.25;;;3.78;97.34
12913;BME280;6524;51.368;11.984;2022-11-13T20:04:25;100989.88;;;3.66;97.74
12913;BME280;6524;51.368;11.984;2022-11-13T20:09:27;100981.28;;;3.64;98.55
12913;BME280;6524;51.368;11.984;2022-11-13T20:14:28;100982.13;;;3.66;99.54
12913;BME280;6524;51.368;11.984;2022-11-13T20:19:28;100978.78;;;3.85;99.68
12913;BME280;6524;51.368;11.984;2022-11-13T20:24:29;100980.63;;;4.08;100.00
12913;BME280;6524;51.368;11.984;2022-11-13T20:29:29;100984.94;;;4.16;100.00
12913;BME280;6524;51.368;11.984;2022-11-13T20:34:31;100985.84;;;4.23;100.00
12913;BME280;6524;51.368;11.984;2022-11-13T20:39:31;100978.97;;;4.31;100.00
12913;BME280;6524;51.368;11.984;2022-11-13T20:44:32;100976.38;;;4.34;100.00
12913;BME280;6524;51.368;11.984;2022-11-13T20:49:32;100969.47;;;4.23;100.00
12913;BME280;6524;51.368;11.984;2022-11-13T20:54:32;100972.84;;;3.99;100.00
12913;BME280;6524;51.368;11.984;2022-11-13T20:59:33;100966.81;;;3.97;100.00
12913;BME280;6524;51.368;11.984;2022-11-13T21:04:33;100972.84;;;3.99;100.00
12913;BME280;6524;51.368;11.984;2022-11-13T21:09:34;100981.44;;;4.04;100.00
12913;BME280;6524;51.368;11.984;2022-11-13T21:14:34;100977.78;;;3.60;100.00
12913;BME280;6524;51.368;11.984;2022-11-13T21:19:34;100966.63;;;3.60;100.00
12913;BME280;6524;51.368;11.984;2022-11-13T21:24:35;100973.66;;;3.91;100.00
12913;BME280;6524;51.368;11.984;2022-11-13T21:29:37;100971.16;;;4.11;100.00
12913;BME280;6524;51.368;11.984;2022-11-13T21:34:37;100968.59;;;4.11;100.00
12913;BME280;6524;51.368;11.984;2022-11-13T21:39:37;100971.22;;;4.27;100.00
12913;BME280;6524;51.368;11.984;2022-11-13T21:44:38;100975.53;;;4.35;100.00
12913;BME280;6524;51.368;11.984;2022-11-13T21:49:38;100973.84;;;4.42;100.00
12913;BME280;6524;51.368;11.984;2022-11-13T21:54:38;100966.06;;;4.37;100.00
12913;BME280;6524;51.368;11.984;2022-11-13T21:59:39;100966.97;;;4.49;100.00
12913;BME280;6524;51.368;11.984;2022-11-13T22:04:39;100961.81;;;4.46;100.00
12913;BME280;6524;51.368;11.984;2022-11-13T22:09:39;100954.88;;;4.41;100.00
12913;BME280;6524;51.368;11.984;2022-11-13T22:14:40;100958.31;;;4.34;100.00
12913;BME280;6524;51.368;11.984;2022-11-13T22:19:40;100944.53;;;4.32;100.00
12913;BME280;6524;51.368;11.984;2022-11-13T22:24:40;100946.28;;;4.36;100.00
12913;BME280;6524;51.368;11.984;2022-11-13T22:29:41;100941.13;;;4.43;100.00
12913;BME280;6524;51.368;11.984;2022-11-13T22:34:41;100937.66;;;4.31;100.00
12913;BME280;6524;51.368;11.984;2022-11-13T22:39:41;100932.50;;;4.37;100.00
12913;BME280;6524;51.368;11.984;2022-11-13T22:44:42;100930.78;;;4.38;100.00
12913;BME280;6524;51.368;11.984;2022-11-13T22:49:42;100929.03;;;4.29;100.00
12913;BME280;6524;51.368;11.984;2022-11-13T22:54:44;100935.06;;;4.28;100.00
12913;BME280;6524;51.368;11.984;2022-11-13T22:59:44;100920.50;;;4.43;100.00
12913;BME280;6524;51.368;11.984;2022-11-13T23:04:44;100914.44;;;4.54;100.00
12913;BME280;6524;51.368;11.984;2022-11-13T23:09:45;100902.41;;;4.56;100.00
12913;BME280;6524;51.368;11.984;2022-11-13T23:14:45;100892.09;;;4.52;100.00
12913;BME280;6524;51.368;11.984;2022-11-13T23:19:46;100891.22;;;4.53;100.00
12913;BME280;6524;51.368;11.984;2022-11-13T23:24:46;100878.31;;;4.42;100.00
12913;BME280;6524;51.368;11.984;2022-11-13T23:29:46;100879.19;;;4.56;100.00
12913;BME280;6524;51.368;11.984;2022-11-13T23:34:46;100872.28;;;4.57;100.00
12913;BME280;6524;51.368;11.984;2022-11-13T23:39:47;100869.72;;;4.58;100.00
12913;BME280;6524;51.368;11.984;2022-11-13T23:44:47;100860.25;;;4.59;100.00
12913;BME280;6524;51.368;11.984;2022-11-13T23:49:48;100859.38;;;4.71;100.00
12913;BME280;6524;51.368;11.984;2022-11-13T23:54:48;100851.63;;;4.63;100.00
12913;BME280;6524;51.368;11.984;2022-11-13T23:59:48;100849.03;;;4.66;100.00
